Terminal Aerodrome Forecast
Issued by NWS

Home | Current Version | Previous Version | Graphics & Text | Print | Product List | Glossary On
Versions: 1 2 3 4 5 6 7 8 9 10 11 12 13 14 15 16 17 18 19 20 21 22 23 24 25 26 27 28 29 30 31
000
FTUS43 KABR 252122 AAA
TAFPIR
TAF AMD
KPIR 252122Z 2521/2618 35015G24KT P6SM VCSH OVC015
     FM260200 36014G21KT P6SM VCSH OVC020
     FM260800 34013KT P6SM OVC020
     FM261300 33015G23KT P6SM BKN020
     FM261700 33015G23KT P6SM BKN035=

USA.gov is the U.S. government's official web portal to all federal, state and local government web resources and services.